Terminal Aerodrome Forecast
Issued by NWS

Home | Current Version | Previous Version | Text Only | Print | Product List | Glossary On
Versions: 1 2 3 4 5 6 7 8 9 10 11 12 13 14 15
000
FTUS43 KGLD 240526
TAFMCK
TAF
KMCK 240526Z 2406/2506 08004KT P6SM FEW100 SCT200
     FM240800 07006KT P6SM VCTS SCT050 BKN090CB
      TEMPO 2408/2411 5SM -TSRA BR BKN003CB
     FM241200 06004KT 5SM BR BKN003
     FM241500 10007KT 6SM BR BKN003
     FM241900 11009KT P6SM BKN015
     FM242100 12011KT P6SM BKN030
     FM242200 13011KT P6SM BKN045=

USA.gov is the U.S. government's official web portal to all federal, state and local government web resources and services.